Time;durP1;ratioP1;P1;durP2;ratioP2;P2;SDS_P1;SDS_P2;PMS_P1;PMS_P2;Temp;Humidity;BMP_temperature;BMP_pressure;BME280_temperature;BME280_humidity;BME280_pressure;Samples;Min_cycle;Max_cycle;Signal;HPM_P1;HPM_P2
2022/02/24 00:00:35;;;;;;;9.10;2.80;;;;;;;12.19;48.21;101625.34;4948570;28;123947;-69
2022/02/24 00:03:03;;;;;;;8.75;2.30;;;;;;;12.18;48.19;101624.47;4918103;28;113122;-69
2022/02/24 00:05:31;;;;;;;11.20;2.38;;;;;;;12.18;48.13;101627.13;4950471;28;112958;-68
2022/02/24 00:07:59;;;;;;;6.95;2.42;;;;;;;12.17;48.28;101617.44;4948821;28;124358;-69
2022/02/24 00:10:26;;;;;;;7.47;2.35;;;;;;;12.16;48.36;101623.66;4950408;28;124245;-69
2022/02/24 00:12:53;;;;;;;10.68;2.60;;;;;;;12.14;48.27;101617.56;4950181;28;114006;-69
2022/02/24 00:15:20;;;;;;;7.78;2.38;;;;;;;12.14;48.17;101616.69;4949164;28;114021;-69
2022/02/24 00:17:48;;;;;;;10.88;2.90;;;;;;;12.13;48.31;101615.84;4948483;28;124151;-69
2022/02/24 00:20:15;;;;;;;5.97;2.38;;;;;;;12.10;48.29;101615.94;4949345;28;124728;-70
2022/02/24 00:22:43;;;;;;;9.52;2.47;;;;;;;12.08;48.42;101607.19;4948928;28;115114;-69
2022/02/24 00:25:10;;;;;;;8.07;2.80;;;;;;;12.07;48.38;101610.75;4948769;28;115518;-69
2022/02/24 00:27:38;;;;;;;10.38;2.70;;;;;;;12.07;48.35;101610.75;4949025;28;124187;-69
2022/02/24 00:30:08;;;;;;;10.25;2.92;;;;;;;12.06;48.34;101606.38;4949414;28;123546;-69
2022/02/24 00:32:36;;;;;;;7.78;2.63;;;;;;;12.05;48.37;101601.97;4950106;28;114559;-69
2022/02/24 00:35:04;;;;;;;7.72;2.25;;;;;;;12.04;48.69;101600.25;4949296;28;114394;-70
2022/02/24 00:37:31;;;;;;;8.65;2.70;;;;;;;12.02;48.74;101596.81;4954340;28;124115;-68
2022/02/24 00:39:58;;;;;;;7.72;2.60;;;;;;;12.01;48.55;101589.75;4951526;28;124478;-69
2022/02/24 00:42:25;;;;;;;7.88;2.60;;;;;;;11.99;48.70;101579.19;4952374;28;114918;-69
2022/02/24 00:44:53;;;;;;;8.82;2.42;;;;;;;11.97;48.68;101588.16;4952158;28;114382;-69
2022/02/24 00:47:21;;;;;;;8.18;2.60;;;;;;;11.96;48.83;101575.78;4952937;28;124128;-69
2022/02/24 00:49:49;;;;;;;9.98;3.05;;;;;;;11.95;48.75;101580.25;4953459;28;123743;-70
2022/02/24 00:52:16;;;;;;;8.50;2.47;;;;;;;11.93;49.04;101571.47;4953338;28;113622;-69
2022/02/24 00:54:47;;;;;;;7.88;2.35;;;;;;;11.94;49.06;101569.69;4952390;28;114345;-69
2022/02/24 00:57:16;;;;;;;7.57;2.30;;;;;;;11.93;48.92;101565.31;4951338;28;124169;-70
2022/02/24 00:59:43;;;;;;;10.27;2.50;;;;;;;11.93;48.96;101565.31;4952829;28;124205;-69
2022/02/24 01:02:11;;;;;;;9.75;2.65;;;;;;;11.93;49.12;101562.66;4957896;28;113147;-69
2022/02/24 01:04:39;;;;;;;6.40;2.63;;;;;;;11.92;48.80;101552.94;4964915;28;114525;-69
2022/02/24 01:07:06;;;;;;;5.97;2.70;;;;;;;11.89;48.88;101556.56;4971429;28;123954;-69
2022/02/24 01:09:33;;;;;;;10.90;2.78;;;;;;;11.88;49.11;101547.75;4972035;28;123688;-69
2022/02/24 01:12:00;;;;;;;6.82;2.40;;;;;;;11.88;48.90;101542.44;4970124;28;116042;-69
2022/02/24 01:14:28;;;;;;;5.43;2.58;;;;;;;11.90;49.08;101538.88;4971179;28;115256;-69
2022/02/24 01:16:55;;;;;;;6.05;2.40;;;;;;;11.90;48.97;101544.19;4970689;28;124199;-69
2022/02/24 01:19:22;;;;;;;8.25;2.53;;;;;;;11.90;49.06;101538.88;4970631;28;123912;-69
2022/02/24 01:21:49;;;;;;;8.05;2.53;;;;;;;11.92;49.11;101537.03;4972467;28;114198;-68
2022/02/24 01:24:16;;;;;;;9.50;2.70;;;;;;;11.91;49.03;101543.28;4971841;28;113601;-70
2022/02/24 01:26:44;;;;;;;7.53;2.53;;;;;;;11.89;48.90;101532.66;4969363;28;124243;-69
2022/02/24 01:29:11;;;;;;;6.18;2.70;;;;;;;11.91;48.74;101535.31;4973134;28;124016;-69
2022/02/24 01:31:39;;;;;;;5.80;2.47;;;;;;;11.91;48.76;101532.66;4972514;28;114172;-70
2022/02/24 01:34:06;;;;;;;9.95;2.70;;;;;;;11.90;48.80;101522.94;4973826;28;114006;-69
2022/02/24 01:36:33;;;;;;;5.82;2.30;;;;;;;11.90;48.84;101522.94;4969924;28;124476;-70
2022/02/24 01:39:01;;;;;;;10.15;3.20;;;;;;;11.90;48.74;101512.31;4970572;28;123740;-70
2022/02/24 01:41:28;;;;;;;8.30;2.70;;;;;;;11.89;48.68;101511.44;4969987;28;114362;-70
2022/02/24 01:43:55;;;;;;;8.27;2.30;;;;;;;11.87;48.67;101508.84;4973182;28;114199;-69
2022/02/24 01:46:23;;;;;;;8.32;2.45;;;;;;;11.87;48.76;101503.53;4973126;28;125130;-69
2022/02/24 01:48:50;;;;;;;8.95;2.30;;;;;;;11.86;48.76;101504.44;4972210;28;122986;-69
2022/02/24 01:51:18;;;;;;;9.77;2.47;;;;;;;11.86;48.68;101485.88;4969615;28;114131;-70
2022/02/24 01:53:45;;;;;;;8.18;2.25;;;;;;;11.85;48.59;101484.16;4956067;28;112962;-69
2022/02/24 01:56:12;;;;;;;11.27;2.80;;;;;;;11.84;48.44;101471.78;4970125;28;124164;-69
2022/02/24 01:58:39;;;;;;;6.85;2.30;;;;;;;11.85;48.62;101473.53;4970055;28;123748;-69
2022/02/24 02:01:06;;;;;;;10.13;2.35;;;;;;;11.84;48.48;101461.19;4970769;28;114222;-69
2022/02/24 02:03:34;;;;;;;9.65;2.47;;;;;;;11.84;48.55;101458.53;4972029;28;115101;-69
2022/02/24 02:06:01;;;;;;;10.95;2.50;;;;;;;11.85;48.58;101457.59;4971415;28;124851;-70
2022/02/24 02:08:28;;;;;;;8.65;2.40;;;;;;;11.83;48.57;101448.84;4964957;28;123440;-69
2022/02/24 02:10:55;;;;;;;8.90;2.45;;;;;;;11.83;48.52;101448.84;4953109;28;114151;-69
2022/02/24 02:13:23;;;;;;;9.63;2.20;;;;;;;11.84;48.16;101444.41;4952243;28;113853;-69
2022/02/24 02:15:53;;;;;;;8.40;2.22;;;;;;;11.83;48.35;101443.53;4950824;28;124093;-69
2022/02/24 02:18:20;;;;;;;11.43;2.00;;;;;;;11.83;48.37;101438.22;4949313;28;123778;-69
2022/02/24 02:20:47;;;;;;;11.45;2.17;;;;;;;11.83;48.45;101438.22;4951057;28;114297;-69
2022/02/24 02:23:14;;;;;;;6.75;2.00;;;;;;;11.83;48.31;101422.31;4952050;28;114685;-69
2022/02/24 02:25:41;;;;;;;12.10;2.25;;;;;;;11.82;48.31;101423.22;4949673;28;124023;-69
2022/02/24 02:28:13;;;;;;;9.77;2.50;;;;;;;11.82;48.07;101409.94;4949875;28;123873;-69
2022/02/24 02:30:41;;;;;;;6.75;1.83;;;;;;;11.82;48.23;101415.25;4950360;28;114308;-69
2022/02/24 02:33:08;;;;;;;9.45;2.00;;;;;;;11.82;48.00;101404.63;4951709;28;113862;-69
2022/02/24 02:35:36;;;;;;;10.80;2.35;;;;;;;11.83;48.42;101413.50;4949855;28;123938;-69
2022/02/24 02:38:04;;;;;;;9.60;2.28;;;;;;;11.83;48.28;101410.84;4950004;28;124249;-69
2022/02/24 02:40:37;;;;;;;7.47;2.13;;;;;;;11.82;48.14;101404.63;4952225;28;114295;-69
2022/02/24 02:43:06;;;;;;;8.52;2.13;;;;;;;11.83;48.21;101405.53;4951118;28;113000;-69
2022/02/24 02:45:34;;;;;;;8.90;2.85;;;;;;;11.82;48.11;101404.63;4948433;28;123703;-70
2022/02/24 02:48:02;;;;;;;10.65;2.22;;;;;;;11.81;48.35;101402.03;4949821;28;123667;-69
2022/02/24 02:50:29;;;;;;;9.23;2.42;;;;;;;11.80;48.25;101395.88;4949748;28;115114;-69
2022/02/24 02:53:01;;;;;;;8.88;2.47;;;;;;;11.79;48.41;101394.19;4952488;28;115126;-69
2022/02/24 02:55:29;;;;;;;8.23;2.00;;;;;;;11.79;48.47;101396.81;4950110;28;123879;-68
2022/02/24 02:57:56;;;;;;;10.35;2.20;;;;;;;11.78;48.60;101395.09;4948735;28;123815;-70
2022/02/24 03:00:23;;;;;;;7.13;2.20;;;;;;;11.78;48.31;101392.44;4951186;28;114203;-69
2022/02/24 03:02:51;;;;;;;6.43;2.25;;;;;;;11.77;48.47;101389.84;4934522;28;113153;-69
2022/02/24 03:05:18;;;;;;;8.98;2.80;;;;;;;11.77;48.67;101382.75;4951934;28;124034;-69
2022/02/24 03:07:47;;;;;;;6.53;2.28;;;;;;;11.76;48.67;101378.38;4935689;28;124007;-70
2022/02/24 03:10:15;;;;;;;6.82;2.17;;;;;;;11.76;48.56;101374.84;4949791;28;114446;-68
2022/02/24 03:12:42;;;;;;;6.15;2.30;;;;;;;11.75;48.54;101366.00;4950832;28;114278;-69
2022/02/24 03:15:13;;;;;;;6.75;2.30;;;;;;;11.74;48.63;101364.31;4948689;28;124624;-69
2022/02/24 03:17:44;;;;;;;7.82;2.40;;;;;;;11.73;48.85;101367.88;4951756;28;124512;-69
2022/02/24 03:20:13;;;;;;;7.68;2.67;;;;;;;11.73;48.80;101361.72;4949041;28;114580;-69
2022/02/24 03:22:42;;;;;;;9.77;2.60;;;;;;;11.74;48.95;101356.34;4950497;28;114913;-70
2022/02/24 03:25:10;;;;;;;7.28;2.33;;;;;;;11.73;49.15;101356.41;4933185;28;124012;-70
2022/02/24 03:27:37;;;;;;;5.90;2.15;;;;;;;11.71;48.93;101353.81;4951027;28;124607;-69
2022/02/24 03:30:05;;;;;;;7.95;2.70;;;;;;;11.69;48.97;101350.34;4951291;28;114361;-69
2022/02/24 03:32:32;;;;;;;7.45;2.75;;;;;;;11.68;48.93;101338.03;4952193;28;114313;-69
2022/02/24 03:35:00;;;;;;;10.10;2.47;;;;;;;11.66;49.27;101335.44;4949126;28;124544;-69
2022/02/24 03:37:27;;;;;;;8.00;2.10;;;;;;;11.66;48.99;101345.19;4949155;28;123855;-70
2022/02/24 03:39:57;;;;;;;7.53;2.28;;;;;;;11.63;49.22;101340.00;4948238;28;115787;-70
2022/02/24 03:42:25;;;;;;;10.45;2.40;;;;;;;11.62;49.31;101332.94;4948360;28;114968;-69
2022/02/24 03:44:52;;;;;;;10.23;2.67;;;;;;;11.62;49.37;101338.25;4947520;28;123720;-68
2022/02/24 03:47:22;;;;;;;7.65;2.10;;;;;;;11.60;49.67;101329.50;4953442;28;96712;-70
2022/02/24 03:49:50;;;;;;;11.27;2.60;;;;;;;11.59;49.62;101327.78;4948775;28;114355;-70
2022/02/24 03:52:18;;;;;;;10.77;2.78;;;;;;;11.58;49.99;101320.75;4950262;28;114323;-70
2022/02/24 03:54:46;;;;;;;7.60;2.40;;;;;;;11.57;49.58;101313.72;4948741;28;124924;-69
2022/02/24 03:57:17;;;;;;;14.38;2.53;;;;;;;11.58;50.01;101315.44;4951505;28;123988;-68
2022/02/24 03:59:45;;;;;;;6.22;2.30;;;;;;;11.57;49.84;101309.28;4947537;28;114518;-70
2022/02/24 04:02:13;;;;;;;7.40;2.30;;;;;;;11.57;49.91;101305.78;4932088;28;114175;-70
2022/02/24 04:04:42;;;;;;;7.35;2.50;;;;;;;11.54;49.89;101304.09;4930764;28;124390;-70
2022/02/24 04:07:09;;;;;;;9.38;2.33;;;;;;;11.56;49.94;101296.06;4948783;28;124798;-70
2022/02/24 04:09:37;;;;;;;11.57;2.50;;;;;;;11.54;49.98;101292.63;4951035;28;114068;-70
2022/02/24 04:12:15;;;;;;;8.82;2.17;;;;;;;11.53;50.14;101285.59;4949297;28;114702;-70
2022/02/24 04:14:44;;;;;;;12.50;2.80;;;;;;;11.53;49.95;101280.28;4948685;28;124393;-70
2022/02/24 04:17:13;;;;;;;9.77;2.20;;;;;;;11.52;50.05;101283.88;4948535;28;124047;-69
2022/02/24 04:19:40;;;;;;;9.88;2.60;;;;;;;11.53;50.20;101285.59;4950035;28;113799;-70
2022/02/24 04:22:08;;;;;;;8.60;2.63;;;;;;;11.53;50.26;101280.28;4951584;28;113975;-70
2022/02/24 04:24:35;;;;;;;7.50;2.38;;;;;;;11.52;50.26;101270.63;4948144;28;124685;-70
2022/02/24 04:27:02;;;;;;;9.60;2.30;;;;;;;11.52;50.38;101275.91;4948424;28;123888;-70
2022/02/24 04:29:30;;;;;;;8.13;2.58;;;;;;;11.50;50.30;101276.84;4948150;28;115115;-69
2022/02/24 04:31:57;;;;;;;9.57;2.20;;;;;;;11.50;50.17;101263.56;4949207;28;115059;-68
2022/02/24 04:34:24;;;;;;;8.23;2.38;;;;;;;11.50;50.29;101265.38;4950196;28;124370;-70
2022/02/24 04:36:52;;;;;;;8.20;2.10;;;;;;;11.52;50.35;101257.34;4949308;28;123723;-69
2022/02/24 04:39:19;;;;;;;6.35;1.90;;;;;;;11.49;50.12;101243.28;4949837;28;114791;-70
2022/02/24 04:41:46;;;;;;;7.93;2.30;;;;;;;11.49;50.25;101238.00;4948440;28;113826;-70
2022/02/24 04:44:13;;;;;;;10.98;2.60;;;;;;;11.50;50.37;101234.38;4951437;28;124216;-70
2022/02/24 04:46:40;;;;;;;6.82;2.15;;;;;;;11.51;50.41;101235.28;4950084;28;123836;-70
2022/02/24 04:49:07;;;;;;;7.38;2.03;;;;;;;11.49;50.29;101227.38;4948442;28;114125;-70
2022/02/24 04:51:35;;;;;;;6.05;2.15;;;;;;;11.49;50.37;101222.06;4948620;28;113477;-69
2022/02/24 04:54:02;;;;;;;11.45;2.17;;;;;;;11.49;50.57;101216.78;4950285;28;124111;-69
2022/02/24 04:56:29;;;;;;;8.32;2.00;;;;;;;11.50;50.37;101218.47;4947998;28;124042;-70
2022/02/24 04:58:56;;;;;;;5.60;1.85;;;;;;;11.50;50.59;101218.47;4949964;28;113605;-70
2022/02/24 05:01:24;;;;;;;9.35;2.22;;;;;;;11.49;50.58;101222.06;4949253;28;114007;-70
2022/02/24 05:03:51;;;;;;;5.95;1.73;;;;;;;11.48;50.57;101224.78;4950203;28;124226;-70
2022/02/24 05:06:18;;;;;;;8.23;1.98;;;;;;;11.48;50.56;101220.34;4948862;28;122918;-70
2022/02/24 05:08:46;;;;;;;10.38;2.40;;;;;;;11.47;50.57;101218.63;4948339;28;114387;-70
2022/02/24 05:11:13;;;;;;;8.10;2.10;;;;;;;11.47;50.71;101213.31;4949025;28;114481;-70
2022/02/24 05:13:40;;;;;;;7.63;1.92;;;;;;;11.48;50.72;101204.41;4949859;28;123028;-70
2022/02/24 05:16:07;;;;;;;7.47;2.17;;;;;;;11.49;50.62;101195.53;4947949;28;124498;-70
2022/02/24 05:18:34;;;;;;;7.32;1.92;;;;;;;11.49;50.80;101200.84;4950207;28;115269;-70
2022/02/24 05:21:01;;;;;;;8.43;2.40;;;;;;;11.49;50.79;101195.53;4949254;28;114398;-70
2022/02/24 05:23:28;;;;;;;8.70;2.17;;;;;;;11.50;50.65;101199.91;4952980;28;124661;-70
2022/02/24 05:25:56;;;;;;;7.53;2.30;;;;;;;11.48;50.65;101193.81;4950995;28;124041;-70
2022/02/24 05:28:24;;;;;;;5.45;1.50;;;;;;;11.49;50.92;101190.25;4953019;28;113256;-70
2022/02/24 05:30:58;;;;;;;6.47;1.77;;;;;;;11.49;50.87;101187.59;4952860;28;113698;-70
2022/02/24 05:33:28;;;;;;;9.27;2.37;;;;;;;11.48;50.59;101172.59;4953388;28;124453;-70
2022/02/24 05:35:56;;;;;;;7.00;1.83;;;;;;;11.48;51.03;101167.28;4951947;28;124488;-70
2022/02/24 05:38:23;;;;;;;7.38;2.00;;;;;;;11.49;50.75;101173.47;4951360;28;115462;-70
2022/02/24 05:40:50;;;;;;;5.95;2.03;;;;;;;11.47;50.86;101175.31;4951875;28;114106;-70
2022/02/24 05:43:17;;;;;;;8.02;2.00;;;;;;;11.47;50.98;101173.53;4951963;28;124050;-70
2022/02/24 05:45:44;;;;;;;8.85;2.15;;;;;;;11.48;50.82;101167.28;4950724;28;124486;-69
2022/02/24 05:48:12;;;;;;;6.78;2.05;;;;;;;11.49;50.85;101158.41;4951193;28;114159;-70
2022/02/24 05:50:40;;;;;;;8.57;1.80;;;;;;;11.49;50.87;101142.50;4951255;28;114088;-70
2022/02/24 05:53:07;;;;;;;8.50;1.98;;;;;;;11.49;51.08;101137.19;4952090;28;124065;-70
2022/02/24 05:55:35;;;;;;;5.70;1.77;;;;;;;11.48;50.92;101143.41;4952589;28;124005;-70
2022/02/24 05:58:03;;;;;;;9.18;2.40;;;;;;;11.48;50.68;101145.22;4951073;28;114902;-70
2022/02/24 06:00:31;;;;;;;7.05;1.75;;;;;;;11.47;51.13;101140.81;4953336;28;114218;-70
2022/02/24 06:02:58;;;;;;;8.70;2.22;;;;;;;11.45;51.20;101135.59;4952055;28;125651;-71
2022/02/24 06:05:25;;;;;;;9.13;2.10;;;;;;;11.44;51.08;101139.19;4950365;28;124029;-70
2022/02/24 06:07:52;;;;;;;7.53;1.80;;;;;;;11.43;51.14;101126.88;4951794;28;116064;-70
2022/02/24 06:10:20;;;;;;;8.55;2.10;;;;;;;11.45;51.17;101135.59;4950079;28;114737;-70
2022/02/24 06:12:47;;;;;;;8.18;2.20;;;;;;;11.45;51.17;101125.00;4951510;28;124165;-70
2022/02/24 06:15:14;;;;;;;6.03;2.00;;;;;;;11.44;51.25;101123.25;4935858;28;123355;-71
2022/02/24 06:17:42;;;;;;;8.85;2.20;;;;;;;11.44;51.38;101123.25;4952218;28;113242;-70
2022/02/24 06:20:09;;;;;;;8.35;1.95;;;;;;;11.44;51.20;101117.97;4950989;28;113854;-71
2022/02/24 06:22:36;;;;;;;8.60;2.38;;;;;;;11.44;51.21;101112.66;4951814;28;123898;-70
2022/02/24 06:25:04;;;;;;;9.95;2.08;;;;;;;11.44;51.27;101112.66;4952862;28;124486;-70
2022/02/24 06:27:31;;;;;;;8.75;2.22;;;;;;;11.44;51.20;101106.50;4950455;28;115143;-70
2022/02/24 06:29:58;;;;;;;9.23;2.10;;;;;;;11.44;51.29;101099.41;4950506;28;113638;-71
2022/02/24 06:32:25;;;;;;;10.15;2.20;;;;;;;11.44;51.21;101096.75;4948964;28;124083;-71
2022/02/24 06:34:56;;;;;;;9.48;2.28;;;;;;;11.43;51.16;101095.03;4950535;28;122807;-70
2022/02/24 06:37:23;;;;;;;6.60;1.90;;;;;;;11.43;51.35;101100.34;4951605;28;113960;-70
2022/02/24 06:39:51;;;;;;;9.30;2.15;;;;;;;11.43;51.52;101095.03;4950320;28;113147;-70
2022/02/24 06:42:19;;;;;;;6.75;2.00;;;;;;;11.44;51.37;101099.41;4952118;28;124012;-70
2022/02/24 06:44:46;;;;;;;7.65;2.28;;;;;;;11.45;51.29;101098.47;4951111;28;123652;-70
2022/02/24 06:47:13;;;;;;;8.98;2.08;;;;;;;11.46;51.32;101097.53;4952277;28;114348;-70
2022/02/24 06:49:43;;;;;;;9.80;1.95;;;;;;;11.46;51.16;101100.19;4950797;28;114290;-70
2022/02/24 06:52:10;;;;;;;6.95;1.98;;;;;;;11.46;51.49;101094.88;4952813;28;125181;-70
2022/02/24 06:54:37;;;;;;;8.43;1.83;;;;;;;11.44;51.29;101096.75;4933362;28;123884;-70
2022/02/24 06:57:06;;;;;;;6.90;2.00;;;;;;;11.43;51.38;101097.69;4950823;28;115278;-70
2022/02/24 06:59:34;;;;;;;8.48;2.10;;;;;;;11.43;51.33;101089.72;4952408;28;114325;-70
2022/02/24 07:02:04;;;;;;;8.38;2.10;;;;;;;11.44;51.54;101080.81;4950250;28;125704;-70
2022/02/24 07:04:33;;;;;;;6.68;1.80;;;;;;;11.44;51.47;101075.53;4949140;28;124262;-70
2022/02/24 07:07:01;;;;;;;8.00;1.90;;;;;;;11.45;51.41;101066.66;4953218;28;114568;-70
2022/02/24 07:09:28;;;;;;;5.30;1.85;;;;;;;11.44;51.66;101070.22;4950722;28;113748;-70
2022/02/24 07:11:56;;;;;;;6.70;1.95;;;;;;;11.45;51.42;101065.78;4950436;28;124619;-70
2022/02/24 07:14:23;;;;;;;6.32;2.17;;;;;;;11.44;51.29;101062.25;4950856;28;124758;-70
2022/02/24 07:16:50;;;;;;;9.02;2.17;;;;;;;11.44;51.43;101069.38;4950670;28;114538;-71
2022/02/24 07:19:18;;;;;;;7.47;2.00;;;;;;;11.45;51.54;101066.66;4953678;28;113439;-70
2022/02/24 07:21:45;;;;;;;7.93;1.92;;;;;;;11.47;51.47;101064.78;4951386;28;124077;-70
2022/02/24 07:24:12;;;;;;;7.82;1.65;;;;;;;11.48;51.44;101066.50;4953038;28;124601;-70
2022/02/24 07:26:39;;;;;;;8.43;1.92;;;;;;;11.48;51.31;101071.81;4950493;28;114117;-70
2022/02/24 07:29:09;;;;;;;4.93;1.65;;;;;;;11.48;51.46;101071.81;4952139;28;114599;-70
2022/02/24 07:31:36;;;;;;;6.18;1.80;;;;;;;11.48;51.41;101070.94;4951189;28;124850;-70
2022/02/24 07:34:04;;;;;;;6.05;1.65;;;;;;;11.47;51.18;101070.09;4952649;28;123917;-70
2022/02/24 07:36:33;;;;;;;7.97;1.63;;;;;;;11.47;51.32;101063.91;4936038;28;114087;-70
2022/02/24 07:39:00;;;;;;;5.60;2.08;;;;;;;11.47;51.46;101054.19;4933975;28;113986;-71
2022/02/24 07:41:27;;;;;;;9.52;1.85;;;;;;;11.48;51.37;101061.19;4950394;28;124091;-70
2022/02/24 07:43:56;;;;;;;6.03;1.52;;;;;;;11.48;51.32;101036.47;4950377;28;124205;-70
2022/02/24 07:46:23;;;;;;;7.63;1.92;;;;;;;11.48;51.31;101047.94;4932353;28;115574;-70
2022/02/24 07:48:52;;;;;;;4.35;1.58;;;;;;;11.48;51.40;101045.28;4950031;28;115572;-71
2022/02/24 07:51:19;;;;;;;6.70;1.58;;;;;;;11.50;51.11;101027.50;4949268;28;123860;-70
2022/02/24 07:53:47;;;;;;;4.15;1.70;;;;;;;11.53;51.29;101037.13;4951948;28;123745;-70
2022/02/24 07:56:16;;;;;;;5.80;1.50;;;;;;;11.55;51.07;101034.41;4951592;28;114614;-70
2022/02/24 07:58:43;;;;;;;8.23;1.98;;;;;;;11.56;51.05;101030.81;4950033;28;114082;-70
2022/02/24 08:01:10;;;;;;;5.18;1.60;;;;;;;11.59;51.14;101030.69;4951436;28;124390;-70
2022/02/24 08:03:38;;;;;;;8.23;1.60;;;;;;;11.60;51.01;101032.38;4950716;28;122650;-69
2022/02/24 08:06:05;;;;;;;5.13;1.38;;;;;;;11.61;51.07;101040.28;4949949;28;114889;-70
2022/02/24 08:08:32;;;;;;;7.40;1.60;;;;;;;11.63;50.96;101032.25;4950026;28;114561;-70
2022/02/24 08:11:00;;;;;;;6.45;1.58;;;;;;;11.64;50.79;101023.34;4950220;28;123767;-70
2022/02/24 08:13:28;;;;;;;5.28;1.52;;;;;;;11.65;50.98;101025.06;4951277;28;124055;-70
2022/02/24 08:15:55;;;;;;;5.82;1.50;;;;;;;11.67;50.67;101023.22;4949155;28;114814;-70
2022/02/24 08:18:23;;;;;;;4.43;1.20;;;;;;;11.68;50.76;101019.63;4932754;28;114266;-70
2022/02/24 08:20:50;;;;;;;6.43;1.50;;;;;;;11.68;50.87;101019.63;4949766;28;124293;-70
2022/02/24 08:23:18;;;;;;;6.22;1.42;;;;;;;11.71;50.98;101014.16;4950797;28;124321;-70
2022/02/24 08:25:45;;;;;;;8.07;1.92;;;;;;;11.73;50.79;101007.00;4947995;28;114219;-70
2022/02/24 08:28:12;;;;;;;5.15;1.50;;;;;;;11.75;50.60;100999.81;4952503;28;114446;-70
2022/02/24 08:30:40;;;;;;;5.05;1.58;;;;;;;11.78;50.45;100998.84;4948488;28;124797;-70
2022/02/24 08:33:07;;;;;;;7.60;1.60;;;;;;;11.80;50.55;100987.19;4950293;28;124159;-71
2022/02/24 08:35:36;;;;;;;3.83;1.02;;;;;;;11.82;50.64;100990.63;4949792;28;115465;-70
2022/02/24 08:38:05;;;;;;;9.32;1.42;;;;;;;11.84;50.60;100972.84;4949261;28;114623;-71
2022/02/24 08:40:32;;;;;;;7.50;1.60;;;;;;;11.87;50.61;100972.72;4950366;28;124015;-70
2022/02/24 08:42:59;;;;;;;3.90;1.10;;;;;;;11.90;50.49;100971.72;4951172;28;123865;-70
2022/02/24 08:45:28;;;;;;;3.65;1.42;;;;;;;11.95;50.53;100968.88;4934045;28;113247;-70
2022/02/24 08:47:55;;;;;;;9.18;1.67;;;;;;;11.98;50.20;100968.69;4950332;28;113942;-70
2022/02/24 08:50:23;;;;;;;6.50;1.40;;;;;;;12.00;50.34;100961.53;4947878;28;123898;-70
2022/02/24 08:53:10;;;;;;;4.72;1.60;;;;;;;12.03;50.30;100948.94;4951091;28;123854;-69
2022/02/24 08:55:37;;;;;;;5.35;1.27;;;;;;;12.08;50.10;100948.75;4948634;28;114564;-70
2022/02/24 08:58:06;;;;;;;5.60;1.23;;;;;;;12.12;50.03;100945.00;4955412;28;113623;-70
2022/02/24 09:00:34;;;;;;;6.22;1.50;;;;;;;12.18;50.17;100944.66;4951311;28;124561;-70
2022/02/24 09:03:03;;;;;;;6.43;1.60;;;;;;;12.23;49.97;100942.66;4937317;28;123265;-70
2022/02/24 09:05:33;;;;;;;7.40;1.30;;;;;;;12.29;50.06;100940.63;4954934;28;114457;-70
2022/02/24 09:08:00;;;;;;;5.70;1.48;;;;;;;12.35;49.91;100935.84;4953918;28;113124;-69
2022/02/24 09:10:30;;;;;;;9.25;1.45;;;;;;;12.39;49.66;100931.25;4951653;28;123824;-70
2022/02/24 09:12:59;;;;;;;3.95;1.25;;;;;;;12.42;49.82;100925.78;4953261;28;124449;-70
2022/02/24 09:15:27;;;;;;;8.13;1.50;;;;;;;12.46;49.79;100916.72;4952274;28;113840;-70
2022/02/24 09:18:05;;;;;;;5.68;1.50;;;;;;;12.49;49.59;100916.56;4954936;28;114011;-70
2022/02/24 09:20:32;;;;;;;6.75;1.50;;;;;;;12.53;49.52;100915.47;4952209;28;123075;-70
2022/02/24 09:22:59;;;;;;;4.95;1.30;;;;;;;12.58;49.65;100910.78;4953095;28;122949;-71
2022/02/24 09:25:27;;;;;;;3.85;1.00;;;;;;;12.61;49.38;100894.66;4953471;28;113961;-70
2022/02/24 09:27:54;;;;;;;6.65;1.30;;;;;;;12.63;49.32;100892.78;4951929;28;115117;-70
2022/02/24 09:30:21;;;;;;;4.70;1.20;;;;;;;12.65;49.39;100874.94;4953051;28;123009;-70
2022/02/24 09:32:56;;;;;;;7.25;1.48;;;;;;;12.69;49.26;100880.13;4954179;28;123938;-70
2022/02/24 09:35:24;;;;;;;7.43;1.65;;;;;;;12.73;49.26;100865.72;4952519;28;114305;-70
2022/02/24 09:37:51;;;;;;;4.13;1.48;;;;;;;12.75;49.16;100853.19;4952751;28;113977;-70
2022/02/24 09:40:19;;;;;;;5.30;1.05;;;;;;;12.80;49.26;100861.78;4952939;28;122879;-70
2022/02/24 09:43:06;;;;;;;6.65;1.40;;;;;;;12.84;49.04;100847.38;4953485;28;123868;-70
2022/02/24 09:45:34;;;;;;;6.25;1.60;;;;;;;12.87;49.10;100852.56;4934489;28;114177;-70
2022/02/24 09:48:05;;;;;;;4.68;1.25;;;;;;;12.91;49.30;100843.47;4952094;28;114101;-70
2022/02/24 09:50:33;;;;;;;6.03;1.50;;;;;;;12.95;49.09;100852.13;4951614;28;124103;-70
2022/02/24 09:53:02;;;;;;;9.30;1.67;;;;;;;12.98;48.93;100850.16;4936355;28;122709;-70
2022/02/24 09:55:30;;;;;;;4.78;1.48;;;;;;;13.02;49.03;100830.44;4951689;28;114558;-70
2022/02/24 09:57:57;;;;;;;4.82;1.35;;;;;;;13.07;48.95;100822.19;4954029;28;114505;-69
2022/02/24 10:00:24;;;;;;;6.05;1.50;;;;;;;13.15;48.87;100829.75;4950543;28;124303;-70
2022/02/24 10:02:51;;;;;;;6.15;1.55;;;;;;;13.23;48.79;100819.53;4952575;28;125192;-70
2022/02/24 10:05:19;;;;;;;6.95;1.30;;;;;;;13.29;48.89;100816.53;4951515;28;114097;-70
2022/02/24 10:07:46;;;;;;;5.35;1.30;;;;;;;13.32;48.71;100805.75;4953719;28;113783;-70
2022/02/24 10:10:21;;;;;;;3.88;1.27;;;;;;;13.36;48.48;100791.31;4952896;28;124398;-70
2022/02/24 10:13:15;;;;;;;8.80;1.50;;;;;;;13.40;48.71;100782.22;4952214;28;124064;-70
2022/02/24 10:15:52;;;;;;;6.60;1.40;;;;;;;13.44;48.57;100783.75;4952121;28;115105;-70
2022/02/24 10:18:20;;;;;;;3.42;1.13;;;;;;;13.51;48.36;100794.06;4953264;28;115018;-69
2022/02/24 10:21:00;;;;;;;8.77;1.40;;;;;;;13.53;48.32;100787.69;4951244;28;124775;-70
2022/02/24 10:23:38;;;;;;;4.68;1.30;;;;;;;13.55;48.41;100779.63;4952565;28;123725;-70
2022/02/24 10:26:15;;;;;;;7.22;1.40;;;;;;;13.59;48.31;100770.50;4952646;28;114302;-70
2022/02/24 10:28:50;;;;;;;8.13;1.80;;;;;;;13.60;48.18;100754.47;4952801;28;112525;-70
2022/02/24 10:31:24;;;;;;;6.20;1.35;;;;;;;13.61;48.17;100747.31;4932668;28;123773;-70
2022/02/24 10:34:10;;;;;;;6.05;1.27;;;;;;;13.62;48.23;100733.09;4953442;28;123852;-70
2022/02/24 10:36:38;;;;;;;5.13;1.50;;;;;;;13.65;48.22;100738.19;4935125;28;114545;-70
2022/02/24 10:39:13;;;;;;;7.38;1.33;;;;;;;13.71;48.10;100732.53;4933538;28;114584;-69
2022/02/24 10:41:42;;;;;;;4.53;1.00;;;;;;;13.77;48.02;100716.19;4949288;28;123838;-70
2022/02/24 10:44:14;;;;;;;6.72;1.30;;;;;;;13.81;48.03;100712.38;4953418;28;123949;-70
2022/02/24 10:46:44;;;;;;;4.50;0.98;;;;;;;13.90;48.05;100715.44;4951134;28;114883;-70
2022/02/24 10:49:27;;;;;;;5.22;1.20;;;;;;;13.95;47.94;100702.69;4950901;28;114305;-70
2022/02/24 10:52:10;;;;;;;6.45;1.20;;;;;;;14.00;47.88;100700.63;4934332;28;123894;-70
2022/02/24 10:54:37;;;;;;;4.65;0.90;;;;;;;14.06;47.83;100684.25;4950808;28;124397;-69
2022/02/24 10:57:21;;;;;;;5.45;0.98;;;;;;;14.10;47.62;100685.75;4951630;28;114717;-70
2022/02/24 10:59:49;;;;;;;3.78;0.90;;;;;;;14.15;47.48;100682.81;4950393;28;114097;-70
2022/02/24 11:02:19;;;;;;;2.70;0.90;;;;;;;14.19;47.39;100671.88;4950744;28;124552;-69
2022/02/24 11:04:47;;;;;;;4.75;1.08;;;;;;;14.27;47.43;100665.22;4950355;28;124903;-69
2022/02/24 11:07:16;;;;;;;4.13;1.00;;;;;;;14.31;47.31;100661.41;4950159;28;115135;-69
2022/02/24 11:09:45;;;;;;;3.70;1.10;;;;;;;14.37;47.30;100658.31;4951453;28;114302;-70
2022/02/24 11:12:14;;;;;;;5.20;1.33;;;;;;;14.42;46.98;100648.25;4950275;28;124086;-70
2022/02/24 11:14:46;;;;;;;3.47;1.20;;;;;;;14.44;46.87;100646.31;4952442;28;124649;-69
2022/02/24 11:17:14;;;;;;;6.20;1.00;;;;;;;14.49;47.06;100632.72;4953154;28;114710;-69
2022/02/24 11:19:44;;;;;;;6.03;1.20;;;;;;;14.55;46.89;100654.47;4949194;28;114263;-70
2022/02/24 11:22:11;;;;;;;4.38;1.10;;;;;;;14.62;47.06;100643.44;4935147;28;124065;-69